Time;durP1;ratioP1;P1;durP2;ratioP2;P2;SDS_P1;SDS_P2;PMS_P1;PMS_P2;Temp;Humidity;BMP_temperature;BMP_pressure;BME280_temperature;BME280_humidity;BME280_pressure;Samples;Min_cycle;Max_cycle;Signal;HPM_P1;HPM_P2
2023/10/07 00:02:50;;;;;;;5.03;2.05;;;;;;;;;;5056596;28;20059;-72
2023/10/07 00:05:17;;;;;;;6.72;2.40;;;;;;;;;;5056275;28;20029;-72
2023/10/07 00:07:44;;;;;;;5.72;2.25;;;;;;;;;;5056077;28;20086;-72
2023/10/07 00:10:14;;;;;;;4.22;2.13;;;;;;;;;;5056053;28;20020;-72
2023/10/07 00:12:40;;;;;;;7.38;2.22;;;;;;;;;;5055722;28;20063;-72
2023/10/07 00:15:11;;;;;;;4.65;2.05;;;;;;;;;;5054309;28;20017;-72
2023/10/07 00:17:42;;;;;;;5.00;2.40;;;;;;;;;;5055558;28;20051;-72
2023/10/07 00:20:10;;;;;;;4.38;2.10;;;;;;;;;;5055491;28;20171;-72
2023/10/07 00:22:40;;;;;;;5.05;2.08;;;;;;;;;;5054204;28;20035;-72
2023/10/07 00:25:07;;;;;;;4.85;1.65;;;;;;;;;;5055439;28;20020;-71
2023/10/07 00:27:38;;;;;;;3.65;1.80;;;;;;;;;;5055633;28;20422;-72
2023/10/07 00:30:13;;;;;;;3.55;1.80;;;;;;;;;;5054729;28;20032;-72
2023/10/07 00:32:38;;;;;;;6.57;2.00;;;;;;;;;;5055546;28;20095;-72
2023/10/07 00:35:06;;;;;;;4.93;1.92;;;;;;;;;;5055550;28;20579;-72
2023/10/07 00:37:34;;;;;;;4.80;1.92;;;;;;;;;;5055111;28;20071;-72
2023/10/07 00:40:01;;;;;;;3.60;1.95;;;;;;;;;;5055121;28;20052;-72
2023/10/07 00:42:32;;;;;;;6.35;2.10;;;;;;;;;;5055384;28;20024;-72
2023/10/07 00:44:57;;;;;;;3.38;1.58;;;;;;;;;;5053886;28;20025;-72
2023/10/07 00:47:22;;;;;;;3.15;1.80;;;;;;;;;;5054978;28;20019;-71
2023/10/07 00:52:27;;;;;;;3.95;2.17;;;;;;;;;;5054621;28;20103;-71
2023/10/07 00:55:00;;;;;;;5.82;2.17;;;;;;;;;;5054892;28;20057;-72
2023/10/07 00:57:47;;;;;;;6.50;2.20;;;;;;;;;;5054775;28;20498;-71
2023/10/07 01:00:35;;;;;;;3.90;1.80;;;;;;;;;;5054785;28;20076;-72
2023/10/07 01:03:17;;;;;;;3.28;1.70;;;;;;;;;;5054616;28;20045;-71
2023/10/07 01:08:30;;;;;;;5.00;2.08;;;;;;;;;;5055242;28;20032;-72
2023/10/07 01:11:07;;;;;;;4.82;2.05;;;;;;;;;;5054684;28;20120;-72
2023/10/07 01:13:36;;;;;;;4.93;2.05;;;;;;;;;;5054609;28;20025;-72
2023/10/07 01:16:06;;;;;;;6.28;2.00;;;;;;;;;;5054368;28;20116;-72
2023/10/07 01:18:38;;;;;;;5.40;1.77;;;;;;;;;;5055208;28;20095;-72
2023/10/07 01:21:10;;;;;;;3.33;1.88;;;;;;;;;;5054922;28;20075;-72
2023/10/07 01:23:35;;;;;;;3.28;1.80;;;;;;;;;;5054641;28;20068;-72
2023/10/07 01:26:02;;;;;;;3.77;1.80;;;;;;;;;;5054367;28;20017;-71
2023/10/07 01:28:27;;;;;;;5.15;1.98;;;;;;;;;;5054351;28;20266;-72
2023/10/07 01:31:07;;;;;;;4.68;2.22;;;;;;;;;;5054515;28;20383;-72
2023/10/07 01:33:39;;;;;;;4.60;1.85;;;;;;;;;;5053712;28;20029;-72
2023/10/07 01:36:16;;;;;;;5.82;1.98;;;;;;;;;;5054086;28;20017;-72
2023/10/07 01:38:50;;;;;;;5.65;2.13;;;;;;;;;;5054362;28;20031;-72
2023/10/07 01:41:19;;;;;;;5.53;2.00;;;;;;;;;;5053928;28;20025;-72
2023/10/07 01:43:56;;;;;;;5.45;1.80;;;;;;;;;;5053935;28;20053;-72
2023/10/07 01:46:27;;;;;;;5.30;1.63;;;;;;;;;;5054242;28;20480;-72
2023/10/07 01:48:57;;;;;;;3.92;2.13;;;;;;;;;;5054165;28;20039;-72
2023/10/07 01:51:23;;;;;;;6.25;1.83;;;;;;;;;;5052227;28;20044;-72
2023/10/07 01:53:49;;;;;;;7.28;2.33;;;;;;;;;;5053763;28;20025;-72
2023/10/07 01:56:15;;;;;;;6.72;2.13;;;;;;;;;;5053608;28;20399;-72
2023/10/07 01:58:41;;;;;;;3.92;1.98;;;;;;;;;;5053837;28;20056;-72
2023/10/07 02:01:07;;;;;;;3.13;1.58;;;;;;;;;;5053529;28;20021;-72
2023/10/07 02:03:33;;;;;;;4.10;1.60;;;;;;;;;;5052719;28;20040;-73
2023/10/07 02:05:58;;;;;;;4.47;1.85;;;;;;;;;;5052295;28;20472;-72
2023/10/07 02:08:24;;;;;;;4.45;2.15;;;;;;;;;;5053427;28;20029;-71
2023/10/07 02:10:56;;;;;;;5.85;1.73;;;;;;;;;;5053417;28;20082;-72
2023/10/07 02:13:21;;;;;;;4.45;1.88;;;;;;;;;;5052136;28;20079;-71
2023/10/07 02:15:48;;;;;;;4.35;1.83;;;;;;;;;;5052014;28;20029;-72
2023/10/07 02:18:17;;;;;;;3.85;1.60;;;;;;;;;;5053377;28;20032;-71
2023/10/07 02:20:49;;;;;;;6.10;1.70;;;;;;;;;;5053213;28;20404;-71
2023/10/07 02:23:37;;;;;;;3.83;1.83;;;;;;;;;;5053553;28;20038;-71
2023/10/07 02:26:19;;;;;;;3.70;1.83;;;;;;;;;;5054044;28;20017;-72
2023/10/07 02:28:46;;;;;;;4.30;2.10;;;;;;;;;;5053194;28;20031;-72
2023/10/07 02:31:18;;;;;;;4.15;2.15;;;;;;;;;;5053494;28;20036;-71
2023/10/07 02:33:45;;;;;;;3.67;1.60;;;;;;;;;;5053075;28;20154;-72
2023/10/07 02:36:32;;;;;;;4.82;1.90;;;;;;;;;;5052946;28;20032;-72
2023/10/07 02:41:46;;;;;;;5.57;1.85;;;;;;;;;;5053572;28;20426;-72
2023/10/07 02:44:16;;;;;;;4.80;1.70;;;;;;;;;;5052938;28;20020;-71
2023/10/07 02:46:41;;;;;;;3.28;1.75;;;;;;;;;;5053212;28;20032;-72
2023/10/07 02:49:10;;;;;;;5.40;1.85;;;;;;;;;;5052760;28;20027;-72
2023/10/07 02:51:55;;;;;;;3.42;1.75;;;;;;;;;;5052856;28;20099;-72
2023/10/07 02:54:21;;;;;;;5.18;1.70;;;;;;;;;;5053062;28;20492;-72
2023/10/07 02:57:39;;;;;;;3.47;1.52;;;;;;;;;;5052758;28;20029;-72
2023/10/07 02:59:50;;;;;;;5.32;1.80;;;;;;;;;;5052232;28;20044;-71
2023/10/07 03:04:58;;;;;;;2.80;1.67;;;;;;;;;;5053224;28;20476;-72
2023/10/07 03:07:24;;;;;;;5.05;1.60;;;;;;;;;;5052740;28;20055;-72
2023/10/07 03:10:04;;;;;;;4.05;1.67;;;;;;;;;;5052682;28;20025;-72
2023/10/07 03:12:30;;;;;;;3.08;1.63;;;;;;;;;;5052888;28;20025;-72
2023/10/07 03:15:03;;;;;;;4.45;1.75;;;;;;;;;;5053228;28;20033;-72
2023/10/07 03:17:39;;;;;;;4.38;1.83;;;;;;;;;;5057294;28;20459;-72
2023/10/07 03:20:28;;;;;;;4.90;1.60;;;;;;;;;;5056979;28;20108;-72
2023/10/07 03:23:11;;;;;;;3.17;1.63;;;;;;;;;;5056980;28;20491;-72
2023/10/07 03:28:21;;;;;;;5.10;1.90;;;;;;;;;;5057083;28;20060;-72
2023/10/07 03:30:51;;;;;;;3.75;1.95;;;;;;;;;;5056671;28;20036;-72
2023/10/07 03:33:18;;;;;;;6.18;1.88;;;;;;;;;;5056844;28;20449;-72
2023/10/07 03:38:20;;;;;;;5.00;1.90;;;;;;;;;;5056776;28;20399;-72
2023/10/07 03:40:53;;;;;;;4.35;1.70;;;;;;;;;;5056569;28;20028;-72
2023/10/07 03:43:19;;;;;;;6.15;1.88;;;;;;;;;;5056449;28;20031;-72
2023/10/07 03:45:45;;;;;;;6.18;2.38;;;;;;;;;;5054942;28;20020;-72
2023/10/07 03:48:23;;;;;;;4.93;1.88;;;;;;;;;;5056209;28;20505;-72
2023/10/07 03:51:08;;;;;;;3.53;1.98;;;;;;;;;;5056205;28;20479;-71
2023/10/07 03:53:45;;;;;;;5.53;1.90;;;;;;;;;;5056386;28;20471;-72
2023/10/07 03:56:12;;;;;;;4.60;1.95;;;;;;;;;;5056232;28;20116;-72
2023/10/07 03:58:38;;;;;;;4.05;1.63;;;;;;;;;;5056057;28;20403;-72
2023/10/07 04:01:22;;;;;;;5.90;1.92;;;;;;;;;;5055911;28;20116;-72
2023/10/07 04:03:51;;;;;;;;;;;;;;;;;;5056970;28;20411;-72
2023/10/07 04:06:30;;;;;;;5.32;1.88;;;;;;;;;;5055943;28;19999;-72
2023/10/07 04:08:58;;;;;;;5.07;1.83;;;;;;;;;;5056160;28;20025;-72
2023/10/07 04:11:26;;;;;;;4.97;2.35;;;;;;;;;;5054501;28;20029;-72
2023/10/07 04:13:55;;;;;;;5.20;2.00;;;;;;;;;;5055749;28;20026;-71
2023/10/07 04:16:24;;;;;;;5.00;2.28;;;;;;;;;;5054330;28;20033;-72
2023/10/07 04:18:51;;;;;;;6.43;2.20;;;;;;;;;;5055680;28;20025;-72
2023/10/07 04:21:16;;;;;;;5.00;1.92;;;;;;;;;;5055862;28;20021;-72
2023/10/07 04:23:44;;;;;;;7.03;2.10;;;;;;;;;;5056076;28;20051;-72
2023/10/07 04:26:11;;;;;;;5.88;1.77;;;;;;;;;;5053345;28;20031;-71
2023/10/07 04:28:39;;;;;;;3.38;1.90;;;;;;;;;;5054217;28;20021;-72
2023/10/07 04:31:09;;;;;;;4.72;1.83;;;;;;;;;;5056142;28;20427;-72
2023/10/07 04:33:40;;;;;;;6.18;2.50;;;;;;;;;;5054105;28;20029;-72
2023/10/07 04:36:14;;;;;;;4.13;1.88;;;;;;;;;;5055552;28;20077;-72
2023/10/07 04:38:52;;;;;;;;;;;;;;;;;;5056015;28;20036;-72
2023/10/07 04:46:56;;;;;;;6.05;2.38;;;;;;;;;;5054090;28;20112;-72
2023/10/07 04:49:26;;;;;;;4.72;2.03;;;;;;;;;;5055169;28;20025;-72
2023/10/07 04:51:57;;;;;;;5.90;1.98;;;;;;;;;;5055264;28;20586;-73
2023/10/07 04:54:23;;;;;;;3.67;1.98;;;;;;;;;;5053781;28;20025;-72
2023/10/07 04:56:54;;;;;;;5.15;2.30;;;;;;;;;;5054863;28;20021;-71
2023/10/07 04:59:21;;;;;;;3.63;2.03;;;;;;;;;;5055145;28;20118;-72
2023/10/07 05:01:48;;;;;;;5.53;2.10;;;;;;;;;;5054693;28;20032;-72
2023/10/07 05:04:15;;;;;;;4.85;2.00;;;;;;;;;;5054852;28;20032;-72
2023/10/07 05:06:43;;;;;;;4.75;2.30;;;;;;;;;;5054758;28;20395;-72
2023/10/07 05:09:09;;;;;;;4.10;2.30;;;;;;;;;;5055027;28;20025;-72
2023/10/07 05:11:45;;;;;;;3.28;1.77;;;;;;;;;;5054945;28;20025;-72
2023/10/07 05:14:10;;;;;;;5.18;2.10;;;;;;;;;;5054993;28;20540;-72
2023/10/07 05:16:37;;;;;;;5.95;2.10;;;;;;;;;;5054538;28;20025;-72
2023/10/07 05:19:03;;;;;;;6.07;2.33;;;;;;;;;;5054472;28;20025;-71
2023/10/07 05:21:31;;;;;;;4.57;2.38;;;;;;;;;;5053160;28;20033;-72
2023/10/07 05:24:01;;;;;;;6.18;1.92;;;;;;;;;;5054811;28;20448;-72
2023/10/07 05:26:27;;;;;;;4.82;2.10;;;;;;;;;;5054749;28;20079;-71
2023/10/07 05:28:52;;;;;;;4.20;1.90;;;;;;;;;;5054571;28;20028;-72
2023/10/07 05:31:17;;;;;;;3.97;1.90;;;;;;;;;;5054341;28;20388;-72
2023/10/07 05:33:43;;;;;;;6.32;2.08;;;;;;;;;;5052982;28;20352;-71
2023/10/07 05:36:13;;;;;;;6.68;2.15;;;;;;;;;;5054248;28;20020;-73
2023/10/07 05:38:44;;;;;;;3.83;1.92;;;;;;;;;;5054173;28;20028;-72
2023/10/07 05:41:14;;;;;;;5.40;1.70;;;;;;;;;;5052911;28;20028;-72
2023/10/07 05:43:43;;;;;;;4.68;2.08;;;;;;;;;;5054308;28;20025;-72
2023/10/07 05:46:11;;;;;;;7.80;2.25;;;;;;;;;;5054016;28;20029;-71
2023/10/07 05:48:38;;;;;;;4.68;1.98;;;;;;;;;;5053946;28;20021;-72
2023/10/07 05:51:07;;;;;;;4.00;2.10;;;;;;;;;;5052584;28;20029;-72
2023/10/07 05:53:36;;;;;;;5.82;2.30;;;;;;;;;;5053873;28;20119;-71
2023/10/07 05:56:05;;;;;;;6.15;2.03;;;;;;;;;;5052443;28;20500;-72
2023/10/07 05:58:32;;;;;;;6.97;2.40;;;;;;;;;;5053812;28;20484;-71
2023/10/07 06:00:58;;;;;;;5.93;2.17;;;;;;;;;;5053769;28;20021;-72
2023/10/07 06:03:25;;;;;;;6.65;2.20;;;;;;;;;;5053736;28;20545;-71
2023/10/07 06:05:50;;;;;;;5.35;2.10;;;;;;;;;;5054149;28;20387;-71
2023/10/07 06:08:16;;;;;;;5.97;2.30;;;;;;;;;;5053590;28;20024;-71
2023/10/07 06:10:44;;;;;;;5.15;2.08;;;;;;;;;;5052811;28;20120;-71
2023/10/07 06:13:09;;;;;;;6.03;2.03;;;;;;;;;;5054041;28;20536;-71
2023/10/07 06:15:37;;;;;;;5.57;2.10;;;;;;;;;;5053542;28;20104;-72
2023/10/07 06:18:06;;;;;;;6.22;2.10;;;;;;;;;;5052115;28;20028;-73
2023/10/07 06:20:37;;;;;;;4.50;1.80;;;;;;;;;;5053576;28;20020;-72
2023/10/07 06:23:13;;;;;;;6.35;1.88;;;;;;;;;;5053680;28;20112;-72
2023/10/07 06:25:41;;;;;;;8.30;2.15;;;;;;;;;;5053438;28;20021;-72
2023/10/07 06:28:11;;;;;;;4.40;2.15;;;;;;;;;;5053226;28;20480;-72
2023/10/07 06:30:38;;;;;;;5.70;2.40;;;;;;;;;;5051815;28;20037;-72
2023/10/07 06:33:04;;;;;;;9.43;2.15;;;;;;;;;;5051869;28;20078;-72
2023/10/07 06:35:32;;;;;;;5.10;2.00;;;;;;;;;;5053430;28;20035;-72
2023/10/07 06:37:57;;;;;;;3.40;1.88;;;;;;;;;;5053088;28;20027;-72
2023/10/07 06:40:25;;;;;;;7.45;2.10;;;;;;;;;;5053070;28;20096;-71
2023/10/07 06:42:52;;;;;;;5.70;2.40;;;;;;;;;;5052967;28;20036;-71
2023/10/07 06:45:18;;;;;;;7.45;1.75;;;;;;;;;;5052977;28;20025;-71
2023/10/07 06:47:46;;;;;;;5.85;2.08;;;;;;;;;;5052985;28;20078;-71
2023/10/07 06:50:23;;;;;;;4.07;2.08;;;;;;;;;;5052294;28;20075;-71
2023/10/07 06:52:49;;;;;;;5.82;2.00;;;;;;;;;;5051938;28;20369;-72
2023/10/07 06:55:15;;;;;;;6.53;1.98;;;;;;;;;;5053183;28;20074;-71
2023/10/07 06:57:43;;;;;;;3.78;1.90;;;;;;;;;;5053389;28;20024;-71
2023/10/07 07:00:14;;;;;;;3.95;1.90;;;;;;;;;;5053037;28;20051;-71
2023/10/07 07:02:43;;;;;;;4.82;1.95;;;;;;;;;;5052826;28;20055;-71
2023/10/07 07:05:13;;;;;;;5.50;2.17;;;;;;;;;;5052709;28;20101;-71
2023/10/07 07:07:39;;;;;;;6.20;2.22;;;;;;;;;;5052827;28;20047;-71
2023/10/07 07:10:07;;;;;;;5.37;2.20;;;;;;;;;;5052991;28;20182;-71
2023/10/07 07:12:33;;;;;;;6.63;2.33;;;;;;;;;;5052793;28;20301;-71
2023/10/07 07:15:26;;;;;;;4.28;1.95;;;;;;;;;;5052732;28;20029;-71
2023/10/07 07:18:00;;;;;;;7.65;2.05;;;;;;;;;;5051290;28;20033;-71
2023/10/07 07:20:48;;;;;;;4.97;1.95;;;;;;;;;;5052599;28;20078;-71
2023/10/07 07:23:16;;;;;;;6.22;2.15;;;;;;;;;;5052621;28;20024;-71
2023/10/07 07:25:43;;;;;;;5.88;1.88;;;;;;;;;;5052526;28;20052;-71
2023/10/07 07:28:16;;;;;;;4.57;2.10;;;;;;;;;;5052789;28;20025;-71
2023/10/07 07:30:43;;;;;;;5.57;2.13;;;;;;;;;;5051259;28;20052;-71
2023/10/07 07:33:08;;;;;;;4.72;1.90;;;;;;;;;;5052721;28;20029;-71
2023/10/07 07:35:43;;;;;;;5.28;2.17;;;;;;;;;;5051201;28;20028;-71
2023/10/07 07:38:43;;;;;;;6.15;1.80;;;;;;;;;;5051120;28;20031;-71
2023/10/07 07:41:09;;;;;;;4.20;1.85;;;;;;;;;;5052310;28;20021;-71
2023/10/07 07:43:39;;;;;;;4.85;1.90;;;;;;;;;;5052413;28;20021;-71
2023/10/07 07:46:18;;;;;;;3.70;1.77;;;;;;;;;;5051117;28;20025;-71
2023/10/07 07:48:50;;;;;;;4.47;1.52;;;;;;;;;;5052658;28;20029;-71
2023/10/07 07:51:17;;;;;;;6.50;1.80;;;;;;;;;;5052294;28;20032;-71
2023/10/07 07:53:46;;;;;;;4.28;1.90;;;;;;;;;;5052619;28;20029;-71
2023/10/07 07:56:15;;;;;;;4.78;2.05;;;;;;;;;;5051036;28;20159;-71
2023/10/07 07:58:41;;;;;;;6.25;1.98;;;;;;;;;;5052313;28;20055;-71
2023/10/07 08:01:18;;;;;;;4.47;2.10;;;;;;;;;;5052757;28;20025;-71
2023/10/07 08:03:43;;;;;;;4.05;1.75;;;;;;;;;;5054734;28;20028;-71
2023/10/07 08:06:13;;;;;;;5.13;2.08;;;;;;;;;;5055984;28;20017;-71
2023/10/07 08:08:39;;;;;;;6.95;2.13;;;;;;;;;;5056134;28;20112;-71
2023/10/07 08:11:05;;;;;;;5.63;2.40;;;;;;;;;;5054444;28;20159;-71
2023/10/07 08:13:31;;;;;;;7.32;2.10;;;;;;;;;;5056304;28;20082;-71
2023/10/07 08:16:04;;;;;;;6.47;2.20;;;;;;;;;;5056056;28;20383;-71
2023/10/07 08:18:29;;;;;;;5.22;2.03;;;;;;;;;;5055635;28;20051;-71
2023/10/07 08:21:07;;;;;;;6.32;2.70;;;;;;;;;;5056045;28;20025;-71
2023/10/07 08:23:40;;;;;;;4.65;1.92;;;;;;;;;;5055825;28;20027;-71
2023/10/07 08:26:12;;;;;;;4.85;2.20;;;;;;;;;;5055421;28;20020;-71
2023/10/07 08:28:42;;;;;;;5.10;2.00;;;;;;;;;;5055697;28;20128;-71
2023/10/07 08:31:14;;;;;;;3.95;2.13;;;;;;;;;;5055323;28;20024;-71
2023/10/07 08:33:40;;;;;;;6.38;2.25;;;;;;;;;;5055477;28;20496;-71
2023/10/07 08:36:07;;;;;;;5.30;2.20;;;;;;;;;;5055164;28;20568;-72
2023/10/07 08:38:50;;;;;;;6.88;2.00;;;;;;;;;;5055221;28;20476;-72
2023/10/07 08:41:18;;;;;;;5.40;2.13;;;;;;;;;;5055340;28;20028;-71
2023/10/07 08:43:45;;;;;;;5.07;2.22;;;;;;;;;;5055294;28;20108;-71
2023/10/07 08:46:19;;;;;;;4.55;2.00;;;;;;;;;;5055097;28;20412;-71
2023/10/07 08:48:58;;;;;;;3.78;2.10;;;;;;;;;;5055350;28;20087;-71
2023/10/07 08:51:25;;;;;;;5.25;2.13;;;;;;;;;;5054883;28;20029;-71
2023/10/07 08:53:57;;;;;;;6.60;1.90;;;;;;;;;;5054961;28;20029;-71
2023/10/07 08:56:23;;;;;;;7.40;2.38;;;;;;;;;;5055154;28;20471;-71
2023/10/07 08:58:49;;;;;;;15.02;2.40;;;;;;;;;;5055162;28;20036;-72
2023/10/07 09:01:19;;;;;;;10.20;2.67;;;;;;;;;;5053497;28;20044;-72
2023/10/07 09:03:49;;;;;;;5.07;2.22;;;;;;;;;;5053534;28;20025;-73
2023/10/07 09:06:16;;;;;;;4.35;2.15;;;;;;;;;;5054761;28;20028;-71
2023/10/07 09:08:43;;;;;;;4.70;1.98;;;;;;;;;;5053426;28;20032;-71
2023/10/07 09:11:12;;;;;;;6.63;2.30;;;;;;;;;;5053306;28;20021;-72
2023/10/07 09:13:38;;;;;;;5.78;1.80;;;;;;;;;;5052988;28;20032;-71
2023/10/07 09:16:07;;;;;;;3.47;2.15;;;;;;;;;;5055338;28;20400;-71
2023/10/07 09:18:41;;;;;;;6.15;2.30;;;;;;;;;;5055361;28;20383;-71
2023/10/07 09:21:18;;;;;;;5.28;2.17;;;;;;;;;;5054743;28;20479;-72
2023/10/07 09:23:58;;;;;;;5.30;2.10;;;;;;;;;;5053369;28;20033;-71
2023/10/07 09:26:41;;;;;;;4.55;2.20;;;;;;;;;;5054463;28;20468;-72
2023/10/07 09:29:21;;;;;;;7.13;2.35;;;;;;;;;;5054610;28;20432;-72
2023/10/07 09:32:04;;;;;;;4.30;2.50;;;;;;;;;;5054510;28;20074;-72
2023/10/07 09:34:32;;;;;;;4.13;2.10;;;;;;;;;;5053854;28;20049;-72
2023/10/07 09:36:57;;;;;;;4.05;2.08;;;;;;;;;;5054019;28;20025;-72
2023/10/07 09:39:43;;;;;;;3.72;2.05;;;;;;;;;;5054105;28;20154;-71
2023/10/07 09:42:26;;;;;;;5.68;2.03;;;;;;;;;;5053987;28;20017;-72
2023/10/07 09:44:55;;;;;;;4.70;2.15;;;;;;;;;;5054038;28;20024;-72
2023/10/07 09:47:21;;;;;;;4.43;2.25;;;;;;;;;;5054003;28;20063;-72
2023/10/07 09:49:47;;;;;;;4.35;2.17;;;;;;;;;;5052550;28;20060;-72
2023/10/07 09:52:16;;;;;;;4.75;1.90;;;;;;;;;;5053828;28;20090;-72
2023/10/07 09:55:18;;;;;;;7.57;2.22;;;;;;;;;;5052488;28;20016;-72
2023/10/07 09:58:00;;;;;;;5.90;2.30;;;;;;;;;;5053798;28;20029;-72
2023/10/07 10:00:38;;;;;;;5.13;2.13;;;;;;;;;;5052628;28;20575;-72
2023/10/07 10:03:33;;;;;;;6.93;2.13;;;;;;;;;;5054545;28;20047;-72
2023/10/07 10:06:24;;;;;;;5.45;2.53;;;;;;;;;;5053889;28;20400;-72
2023/10/07 10:09:08;;;;;;;4.78;2.15;;;;;;;;;;5053860;28;20028;-72
2023/10/07 10:16:45;;;;;;;3.45;2.00;;;;;;;;;;5053988;28;20468;-72
2023/10/07 10:19:22;;;;;;;7.97;2.08;;;;;;;;;;5053446;28;20039;-72
2023/10/07 10:21:48;;;;;;;4.15;2.25;;;;;;;;;;5052025;28;20108;-72
2023/10/07 10:24:15;;;;;;;5.82;2.08;;;;;;;;;;5052851;28;20100;-72
2023/10/07 10:26:40;;;;;;;4.60;2.15;;;;;;;;;;5053303;28;20062;-72
2023/10/07 10:29:15;;;;;;;4.30;2.10;;;;;;;;;;5052483;28;20021;-72
2023/10/07 10:31:49;;;;;;;6.68;2.25;;;;;;;;;;5053260;28;20029;-72
2023/10/07 10:34:14;;;;;;;5.70;2.00;;;;;;;;;;5053478;28;20105;-72
2023/10/07 10:36:43;;;;;;;3.85;2.20;;;;;;;;;;5052964;28;20053;-72
2023/10/07 10:39:19;;;;;;;5.25;2.30;;;;;;;;;;5052991;28;20021;-72
2023/10/07 10:41:45;;;;;;;5.97;2.28;;;;;;;;;;5053019;28;20025;-72
2023/10/07 10:44:12;;;;;;;5.40;2.35;;;;;;;;;;5053223;28;20195;-72
2023/10/07 10:46:44;;;;;;;4.80;2.17;;;;;;;;;;5053249;28;20025;-72
2023/10/07 10:49:13;;;;;;;4.90;2.40;;;;;;;;;;5051542;28;20075;-72
2023/10/07 10:51:46;;;;;;;5.75;2.22;;;;;;;;;;5052963;28;20044;-72
2023/10/07 10:54:19;;;;;;;4.45;2.30;;;;;;;;;;5052871;28;20020;-72
2023/10/07 10:56:55;;;;;;;5.07;2.17;;;;;;;;;;5051456;28;20033;-72
2023/10/07 10:59:22;;;;;;;4.05;2.08;;;;;;;;;;5052815;28;20111;-72
2023/10/07 11:01:51;;;;;;;4.15;1.90;;;;;;;;;;5052984;28;20021;-72
2023/10/07 11:04:20;;;;;;;7.70;2.63;;;;;;;;;;5052727;28;20021;-72
2023/10/07 11:06:50;;;;;;;5.72;2.03;;;;;;;;;;5052952;28;20028;-72
2023/10/07 11:09:18;;;;;;;6.82;2.00;;;;;;;;;;5053034;28;20499;-72
2023/10/07 11:11:44;;;;;;;5.47;2.15;;;;;;;;;;5052637;28;20021;-72
2023/10/07 11:14:12;;;;;;;5.07;2.40;;;;;;;;;;5052606;28;20025;-72
2023/10/07 11:16:47;;;;;;;5.80;2.13;;;;;;;;;;5052563;28;20025;-71
2023/10/07 11:19:19;;;;;;;4.18;2.13;;;;;;;;;;5051231;28;20075;-72
2023/10/07 11:21:49;;;;;;;6.25;2.00;;;;;;;;;;5052667;28;20495;-72
2023/10/07 11:24:30;;;;;;;4.60;1.83;;;;;;;;;;5052797;28;20035;-72
2023/10/07 11:26:59;;;;;;;5.35;2.10;;;;;;;;;;5051309;28;20017;-72
2023/10/07 11:29:29;;;;;;;5.82;2.30;;;;;;;;;;5052402;28;20456;-72
2023/10/07 11:32:08;;;;;;;6.30;2.30;;;;;;;;;;5052344;28;20028;-72
2023/10/07 11:34:42;;;;;;;6.07;2.10;;;;;;;;;;5052518;28;20103;-72
2023/10/07 11:37:19;;;;;;;10.50;2.30;;;;;;;;;;5056120;28;20496;-72
2023/10/07 11:39:45;;;;;;;5.68;2.28;;;;;;;;;;5055638;28;20411;-72
2023/10/07 11:42:12;;;;;;;10.93;2.38;;;;;;;;;;5055027;28;20045;-72
2023/10/07 11:44:38;;;;;;;4.00;2.00;;;;;;;;;;5056258;28;20079;-72
2023/10/07 11:47:06;;;;;;;4.68;2.10;;;;;;;;;;5056224;28;20057;-72
2023/10/07 11:49:32;;;;;;;3.25;2.00;;;;;;;;;;5056000;28;20033;-72
2023/10/07 11:51:57;;;;;;;6.57;2.00;;;;;;;;;;5056957;28;20112;-72
2023/10/07 11:54:24;;;;;;;8.00;2.00;;;;;;;;;;5056081;28;20032;-72
2023/10/07 11:56:49;;;;;;;4.30;1.95;;;;;;;;;;5055959;28;20334;-72
2023/10/07 11:59:15;;;;;;;3.75;1.77;;;;;;;;;;5055955;28;20029;-72
2023/10/07 12:01:40;;;;;;;4.70;2.08;;;;;;;;;;5055951;28;20021;-72
2023/10/07 12:04:05;;;;;;;3.47;2.20;;;;;;;;;;5056075;28;20456;-72
2023/10/07 12:06:31;;;;;;;3.37;1.80;;;;;;;;;;5054624;28;20254;-72
2023/10/07 12:08:56;;;;;;;5.20;1.83;;;;;;;;;;5056015;28;20258;-72
2023/10/07 12:11:22;;;;;;;5.28;1.95;;;;;;;;;;5054444;28;20031;-72
2023/10/07 12:13:47;;;;;;;4.95;1.80;;;;;;;;;;5055730;28;20025;-72
2023/10/07 12:16:13;;;;;;;2.77;1.60;;;;;;;;;;5055764;28;20044;-73
2023/10/07 12:18:39;;;;;;;3.30;1.67;;;;;;;;;;5056015;28;20269;-72
2023/10/07 12:21:11;;;;;;;5.45;1.92;;;;;;;;;;5055551;28;20265;-73
2023/10/07 12:23:38;;;;;;;3.47;1.52;;;;;;;;;;5055624;28;20039;-71
2023/10/07 12:26:11;;;;;;;2.70;1.70;;;;;;;;;;5055545;28;20032;-71
2023/10/07 12:28:36;;;;;;;3.50;1.58;;;;;;;;;;5055580;28;20029;-71
2023/10/07 12:31:14;;;;;;;3.88;1.73;;;;;;;;;;5055444;28;20091;-71
2023/10/07 12:33:39;;;;;;;5.93;2.00;;;;;;;;;;5055883;28;20450;-71
2023/10/07 12:36:15;;;;;;;4.80;1.80;;;;;;;;;;5055021;28;20024;-71
2023/10/07 12:38:41;;;;;;;4.82;1.85;;;;;;;;;;5055591;28;20388;-72
2023/10/07 12:41:08;;;;;;;3.55;1.90;;;;;;;;;;5054002;28;20021;-71
2023/10/07 12:43:34;;;;;;;3.92;1.90;;;;;;;;;;5053991;28;20028;-71
2023/10/07 12:46:00;;;;;;;5.10;2.10;;;;;;;;;;5055244;28;20025;-71
2023/10/07 12:48:26;;;;;;;8.07;2.03;;;;;;;;;;5053042;28;20021;-71
2023/10/07 12:50:52;;;;;;;3.30;1.80;;;;;;;;;;5054957;28;20029;-71
2023/10/07 12:53:17;;;;;;;5.78;2.05;;;;;;;;;;5055045;28;20071;-71
2023/10/07 12:55:42;;;;;;;5.20;1.95;;;;;;;;;;5054890;28;20395;-71
2023/10/07 12:58:15;;;;;;;5.70;2.00;;;;;;;;;;5055135;28;20068;-71
2023/10/07 13:00:41;;;;;;;5.40;2.45;;;;;;;;;;5053628;28;20277;-71
2023/10/07 13:03:07;;;;;;;3.38;1.83;;;;;;;;;;5055019;28;20483;-72
2023/10/07 13:05:35;;;;;;;3.50;1.88;;;;;;;;;;5054806;28;20078;-72
2023/10/07 13:08:00;;;;;;;5.80;2.00;;;;;;;;;;5053463;28;20023;-71
2023/10/07 13:10:26;;;;;;;5.50;2.03;;;;;;;;;;5053306;28;20115;-71
2023/10/07 13:12:55;;;;;;;3.95;1.90;;;;;;;;;;5053353;28;20032;-71
2023/10/07 13:15:30;;;;;;;3.78;1.98;;;;;;;;;;5054646;28;20099;-72
2023/10/07 13:17:58;;;;;;;3.45;1.75;;;;;;;;;;5053311;28;20448;-72
2023/10/07 13:20:24;;;;;;;5.18;1.83;;;;;;;;;;5054693;28;20025;-71
2023/10/07 13:22:50;;;;;;;5.10;1.92;;;;;;;;;;5054459;28;20032;-71
2023/10/07 13:25:18;;;;;;;3.30;1.80;;;;;;;;;;5054402;28;20027;-71
2023/10/07 13:27:43;;;;;;;6.55;1.63;;;;;;;;;;5053145;28;20088;-72
2023/10/07 13:30:13;;;;;;;5.97;2.08;;;;;;;;;;5053025;28;20035;-72
2023/10/07 13:32:44;;;;;;;8.05;2.20;;;;;;;;;;5053060;28;20025;-73
2023/10/07 13:35:15;;;;;;;4.32;2.03;;;;;;;;;;5054671;28;20021;-71
2023/10/07 13:37:43;;;;;;;7.65;2.25;;;;;;;;;;5053003;28;20455;-71
2023/10/07 13:40:16;;;;;;;4.75;2.10;;;;;;;;;;5054132;28;20128;-71
2023/10/07 13:42:43;;;;;;;6.57;2.17;;;;;;;;;;5054430;28;20040;-71
2023/10/07 13:45:09;;;;;;;5.28;2.17;;;;;;;;;;5054013;28;20096;-71
2023/10/07 13:47:35;;;;;;;3.70;1.90;;;;;;;;;;5054338;28;20108;-72
2023/10/07 13:50:10;;;;;;;3.78;1.80;;;;;;;;;;5053912;28;20463;-71
2023/10/07 13:52:44;;;;;;;5.05;2.00;;;;;;;;;;5054086;28;20040;-71
2023/10/07 13:57:56;;;;;;;10.17;2.10;;;;;;;;;;5053924;28;19963;-71
2023/10/07 14:00:29;;;;;;;4.53;1.80;;;;;;;;;;5053912;28;20266;-72
2023/10/07 14:02:57;;;;;;;5.07;1.90;;;;;;;;;;5052494;28;20021;-71
2023/10/07 14:05:24;;;;;;;3.22;1.88;;;;;;;;;;5053767;28;20032;-70
2023/10/07 14:07:51;;;;;;;6.28;1.83;;;;;;;;;;5052344;28;20021;-72
2023/10/07 14:10:16;;;;;;;5.03;1.85;;;;;;;;;;5053627;28;20442;-72
2023/10/07 14:12:41;;;;;;;3.67;1.80;;;;;;;;;;5053548;28;20021;-71
2023/10/07 14:15:08;;;;;;;6.37;1.67;;;;;;;;;;5053460;28;20497;-71
2023/10/07 14:17:33;;;;;;;4.00;1.90;;;;;;;;;;5053410;28;20377;-71
2023/10/07 14:19:58;;;;;;;4.23;1.90;;;;;;;;;;5053367;28;20056;-72
2023/10/07 14:22:24;;;;;;;3.57;1.50;;;;;;;;;;5052085;28;20269;-72
2023/10/07 14:24:50;;;;;;;5.22;2.13;;;;;;;;;;5053300;28;20717;-72
2023/10/07 14:27:15;;;;;;;5.40;2.10;;;;;;;;;;5053297;28;20028;-71
2023/10/07 14:29:41;;;;;;;4.35;1.63;;;;;;;;;;5053259;28;20032;-72
2023/10/07 14:32:09;;;;;;;10.68;2.28;;;;;;;;;;5051908;28;20103;-71
2023/10/07 14:34:34;;;;;;;4.50;1.80;;;;;;;;;;5053206;28;20483;-71
2023/10/07 14:37:00;;;;;;;3.50;1.50;;;;;;;;;;5051819;28;20056;-71
2023/10/07 14:39:27;;;;;;;5.85;2.38;;;;;;;;;;5053077;28;20090;-72
2023/10/07 14:41:52;;;;;;;3.08;1.92;;;;;;;;;;5053102;28;20029;-71
2023/10/07 14:44:18;;;;;;;5.68;1.88;;;;;;;;;;5053088;28;20021;-71
2023/10/07 14:46:44;;;;;;;3.22;1.90;;;;;;;;;;5051786;28;20028;-71
2023/10/07 14:49:10;;;;;;;6.07;1.88;;;;;;;;;;5052927;28;20025;-71
2023/10/07 14:51:39;;;;;;;3.42;2.00;;;;;;;;;;5052893;28;20171;-71
2023/10/07 14:54:04;;;;;;;5.35;2.22;;;;;;;;;;5052994;28;20021;-71
2023/10/07 14:56:29;;;;;;;4.13;2.13;;;;;;;;;;5052879;28;20025;-72
2023/10/07 14:58:55;;;;;;;5.22;2.13;;;;;;;;;;5053103;28;20029;-71
2023/10/07 15:01:23;;;;;;;4.55;2.00;;;;;;;;;;5052942;28;20024;-72
2023/10/07 15:03:54;;;;;;;3.05;1.85;;;;;;;;;;5052746;28;20028;-71
2023/10/07 15:06:21;;;;;;;4.78;1.90;;;;;;;;;;5052351;28;20024;-71
2023/10/07 15:08:46;;;;;;;7.20;2.30;;;;;;;;;;5051494;28;20091;-70
2023/10/07 15:11:19;;;;;;;4.15;1.88;;;;;;;;;;5052320;28;20029;-72
2023/10/07 15:13:45;;;;;;;4.10;2.03;;;;;;;;;;5051441;28;20021;-71
2023/10/07 15:16:11;;;;;;;3.55;1.73;;;;;;;;;;5052811;28;20250;-72
2023/10/07 15:18:38;;;;;;;6.40;2.13;;;;;;;;;;5051323;28;20119;-71
2023/10/07 15:21:07;;;;;;;9.27;2.08;;;;;;;;;;5051612;28;20373;-72
2023/10/07 15:23:33;;;;;;;4.18;2.00;;;;;;;;;;5052718;28;20036;-72
2023/10/07 15:25:59;;;;;;;5.38;1.80;;;;;;;;;;5053205;28;20032;-72
2023/10/07 15:28:24;;;;;;;4.53;2.17;;;;;;;;;;5052969;28;20021;-72
2023/10/07 15:30:50;;;;;;;4.17;2.07;;;;;;;;;;5052721;28;20021;-72